Bookmark and Share
Track history (hours):
 

Snav Aquila

Last reported at 2014-Apr-18 13:18 UTC. Time now 2014-Apr-18 20:56 UTC.
Position N 40°50' E 014°17'.

Length 45 m; draft 1.6 m.

Type: Passenger vessel. MMSI: 247318800.

NotesDate/timePositionNaut miles runAvg speedWind from/ knotsBaromVisibWave heightAir tempDewpointWater temp
2014-Apr-18 13:18N 40°50' E 014°17'1 0.2
2014-Apr-18 09:29N 40°50' E 014°17'5 5.6
2014-Apr-18 08:33N 40°46' E 014°14'5 0.1
2014-Apr-16 17:15N 40°50' E 014°16'1014.8
2014-Apr-16 16:33N 40°40' E 014°16'6 6.5
2014-Apr-16 15:33N 40°33' E 014°14'0 0.0
2014-Apr-16 14:33N 40°33' E 014°14'0 0.0
2014-Apr-16 13:33N 40°33' E 014°14'8 7.9
2014-Apr-16 12:33N 40°41' E 014°16'9 6.2
2014-Apr-16 11:08N 40°50' E 014°16'1220.3
2014-Apr-16 10:33N 40°38' E 014°16'5 4.9
2014-Apr-16 09:33N 40°33' E 014°14'0 0.0
2014-Apr-16 08:33N 40°33' E 014°14'2 2.1
2014-Apr-16 07:33N 40°36' E 014°15'13 0.7
2014-Apr-15 12:34N 40°49' E 014°16'1515.4
2014-Apr-15 11:34N 40°45' E 013°56'1313.1
2014-Apr-15 10:34N 40°48' E 014°13'11 3.5
2014-Apr-15 07:34N 40°46' E 013°59'3 2.7
2014-Apr-15 06:34N 40°45' E 013°56'4 4.2
2014-Apr-15 05:34N 40°46' E 014°02'1 0.3
2014-Apr-15 03:34N 40°46' E 014°01'4 3.8
2014-Apr-15 02:33N 40°45' E 013°56'0 0.0
2014-Apr-14 16:34N 40°45' E 013°56'1615.6
2014-Apr-14 15:33N 40°49' E 014°16'16 3.9
2014-Apr-14 11:34N 40°45' E 013°56'1413.4
2014-Apr-14 10:33N 40°48' E 014°14'9 3.1
2014-Apr-14 07:34N 40°46' E 014°02'4 4.2
2014-Apr-14 06:33N 40°45' E 013°56'4 4.3
2014-Apr-14 05:34N 40°46' E 014°02'4 0.6
2014-Apr-13 22:33N 40°45' E 013°56'0 0.0
2014-Apr-13 21:33N 40°45' E 013°56'0 0.0
2014-Apr-13 20:33N 40°45' E 013°56'0 0.0
2014-Apr-13 19:33N 40°45' E 013°56'0 0.0
2014-Apr-13 18:33N 40°45' E 013°56'0 0.0
2014-Apr-13 17:33N 40°45' E 013°56'1615.8
2014-Apr-13 16:34N 40°49' E 014°16'0 0.1
2014-Apr-13 13:32N 40°49' E 014°17'1616.2
2014-Apr-13 12:34N 40°45' E 013°56'1312.9
2014-Apr-13 11:33N 40°48' E 014°13'4 1.6
2014-Apr-13 09:20N 40°49' E 014°17'1215.7
2014-Apr-13 08:33N 40°47' E 014°01'4 4.2
2014-Apr-13 07:33N 40°45' E 013°56'4 4.2
2014-Apr-13 06:34N 40°46' E 014°02'1210.3
2014-Apr-13 05:23N 40°50' E 014°17'1316.2
2014-Apr-13 04:33N 40°46' E 013°60'3 2.9
2014-Apr-13 03:33N 40°45' E 013°56'0 0.0
2014-Apr-12 17:32N 40°45' E 013°56'1414.6
2014-Apr-12 16:33N 40°48' E 014°15'1 0.5
2014-Apr-12 13:32N 40°48' E 014°13'1313.4
2014-Apr-12 12:33N 40°45' E 013°56'1413.8
2014-Apr-12 11:33N 40°48' E 014°14'3 1.2
2014-Apr-12 09:22N 40°49' E 014°17'1215.2
2014-Apr-12 08:33N 40°46' E 014°01'4 4.1
2014-Apr-12 07:33N 40°45' E 013°56'4 4.2
2014-Apr-12 06:33N 40°46' E 014°02'12 9.8
2014-Apr-12 05:19N 40°50' E 014°17'1316.8
2014-Apr-12 04:34N 40°46' E 014°01'3 0.3
2014-Apr-11 17:34N 40°45' E 013°56'1514.9
2014-Apr-11 16:33N 40°49' E 014°16'1 0.4
2014-Apr-11 13:29N 40°48' E 014°14'1415.1
2014-Apr-11 12:33N 40°45' E 013°56'1413.6
2014-Apr-11 11:33N 40°48' E 014°14'3 1.4
2014-Apr-11 09:22N 40°50' E 014°16'1214.8
2014-Apr-11 08:34N 40°46' E 014°01'4 4.1
2014-Apr-11 07:33N 40°45' E 013°56'4 4.3
2014-Apr-11 06:34N 40°46' E 014°02'12 9.7
2014-Apr-11 05:19N 40°50' E 014°17'1216.2
2014-Apr-11 04:33N 40°46' E 014°01'4 0.4
2014-Apr-10 17:34N 40°45' E 013°56'1414.4
2014-Apr-10 16:33N 40°48' E 014°15'1 0.5
2014-Apr-10 13:25N 40°48' E 014°13'1315.1
2014-Apr-10 12:33N 40°45' E 013°56'1313.0
2014-Apr-10 11:33N 40°48' E 014°13'3 1.6
2014-Apr-10 09:18N 40°50' E 014°17'1216.2
2014-Apr-10 08:33N 40°46' E 014°02'4 4.2
2014-Apr-10 07:33N 40°45' E 013°56'0 0.0
2014-Apr-09 17:34N 40°45' E 013°56'15 3.7
2014-Apr-09 13:31N 40°48' E 014°16'1515.4
2014-Apr-09 12:32N 40°45' E 013°56'1313.1
2014-Apr-09 11:33N 40°47' E 014°13'4 1.7
2014-Apr-09 09:18N 40°50' E 014°17'1216.3
2014-Apr-09 08:34N 40°46' E 014°02'4 4.3
2014-Apr-09 07:33N 40°45' E 013°56'4 4.2
2014-Apr-09 06:33N 40°46' E 014°02'1210.0
2014-Apr-09 05:24N 40°50' E 014°16'1213.7
2014-Apr-09 04:33N 40°47' E 014°01'4 4.2
2014-Apr-09 03:33N 40°45' E 013°56'0 0.0
2014-Apr-08 17:33N 40°45' E 013°56'1515.3
2014-Apr-08 16:33N 40°49' E 014°16'0 0.1
2014-Apr-08 13:33N 40°49' E 014°16'  

Dump ship's entire track history

sailing weather and tide predictions

Snav Aquila — IJCM2 — position and weather